Time;durP1;ratioP1;P1;durP2;ratioP2;P2;SDS_P1;SDS_P2;PMS_P1;PMS_P2;Temp;Humidity;BMP_temperature;BMP_pressure;BME280_temperature;BME280_humidity;BME280_pressure;Samples;Min_cycle;Max_cycle;Signal;HPM_P1;HPM_P2
2022/03/01 00:00:15;;;;;;;23.77;13.57;;;;;;;3.07;67.07;102870.19;5007375;28;20022;-67
2022/03/01 00:02:40;;;;;;;24.73;14.23;;;;;;;3.10;66.88;102865.09;5007005;28;20037;-66
2022/03/01 00:05:06;;;;;;;21.65;12.35;;;;;;;3.09;66.88;102873.72;5008188;28;20034;-67
2022/03/01 00:07:31;;;;;;;24.23;13.68;;;;;;;3.13;66.91;102878.22;5007453;28;20113;-68
2022/03/01 00:09:56;;;;;;;23.58;14.18;;;;;;;3.13;66.69;102873.00;5008326;28;20068;-68
2022/03/01 00:12:22;;;;;;;20.83;12.25;;;;;;;3.11;67.03;102875.56;5006923;28;20030;-69
2022/03/01 00:14:47;;;;;;;20.23;12.23;;;;;;;3.07;67.32;102871.06;5007005;28;20050;-67
2022/03/01 00:17:12;;;;;;;23.50;14.85;;;;;;;3.01;67.46;102874.38;5008591;28;20508;-66
2022/03/01 00:19:38;;;;;;;21.50;13.32;;;;;;;3.06;67.11;102869.31;5021113;28;20131;-67
2022/03/01 00:22:03;;;;;;;23.50;13.55;;;;;;;3.07;67.13;102878.00;5027592;28;20068;-67
2022/03/01 00:24:28;;;;;;;23.80;13.38;;;;;;;3.08;66.70;102872.84;5026881;28;20021;-64
2022/03/01 00:26:54;;;;;;;25.38;13.85;;;;;;;3.01;67.24;102869.16;5018275;28;20046;-67
2022/03/01 00:29:19;;;;;;;27.40;14.32;;;;;;;3.05;67.23;102874.47;5007893;28;20022;-66
2022/03/01 00:31:44;;;;;;;21.52;13.27;;;;;;;3.07;67.35;102875.41;5017452;28;20036;-66
2022/03/01 00:34:10;;;;;;;27.45;13.32;;;;;;;3.04;67.47;102870.97;5027753;28;20017;-66
2022/03/01 00:36:36;;;;;;;25.65;13.82;;;;;;;3.02;67.49;102873.56;5026187;28;20538;-64
2022/03/01 00:39:04;;;;;;;20.85;12.27;;;;;;;3.04;67.48;102865.75;5021079;28;20056;-66
2022/03/01 00:41:29;;;;;;;21.88;12.57;;;;;;;3.06;67.58;102871.00;5006965;28;20022;-65
2022/03/01 00:43:54;;;;;;;23.65;12.82;;;;;;;3.10;67.54;102867.69;5005183;28;20028;-65
2022/03/01 00:46:22;;;;;;;28.30;13.80;;;;;;;3.09;67.65;102868.50;5007227;28;20484;-65
2022/03/01 00:48:48;;;;;;;24.80;12.30;;;;;;;3.10;67.73;102876.38;5047372;28;20037;-65
2022/03/01 00:51:13;;;;;;;28.98;15.98;;;;;;;3.09;68.46;102871.09;5047330;28;20025;-65
2022/03/01 00:53:38;;;;;;;24.73;13.73;;;;;;;3.06;68.43;102876.22;5047413;28;20025;-67
2022/03/01 00:56:04;;;;;;;23.42;13.57;;;;;;;3.05;68.19;102866.66;5027645;28;20250;-66
2022/03/01 00:58:30;;;;;;;26.58;14.27;;;;;;;3.01;68.68;102873.50;5027349;28;20022;-64
2022/03/01 01:00:56;;;;;;;27.92;13.10;;;;;;;3.03;68.62;102871.81;5028022;28;20388;-65
2022/03/01 01:03:21;;;;;;;20.88;12.57;;;;;;;2.99;68.80;102868.25;5046414;28;20021;-65
2022/03/01 01:05:46;;;;;;;29.80;15.27;;;;;;;3.01;68.89;102861.34;5022586;28;20036;-66
2022/03/01 01:08:12;;;;;;;23.08;13.63;;;;;;;3.03;68.85;102869.22;5028786;28;20032;-65
2022/03/01 01:10:37;;;;;;;25.35;14.48;;;;;;;3.10;68.58;102873.75;5025831;28;20033;-64
2022/03/01 01:13:02;;;;;;;26.52;14.48;;;;;;;3.15;68.48;102871.31;5024986;28;20028;-65
2022/03/01 01:15:28;;;;;;;20.27;12.77;;;;;;;3.20;68.03;102869.72;5024226;28;20195;-65
2022/03/01 01:17:53;;;;;;;20.88;13.57;;;;;;;3.18;68.13;102866.19;5025639;28;20057;-64
2022/03/01 01:20:18;;;;;;;25.00;14.02;;;;;;;3.21;68.25;102865.38;5024248;28;20029;-65
2022/03/01 01:22:44;;;;;;;29.70;14.88;;;;;;;3.21;68.10;102863.66;5026104;28;20456;-65
2022/03/01 01:25:13;;;;;;;22.13;13.30;;;;;;;3.23;68.05;102864.63;5036149;28;20115;-65
2022/03/01 01:27:40;;;;;;;24.13;13.73;;;;;;;3.25;68.00;102862.06;5045063;28;20108;-66
2022/03/01 01:30:07;;;;;;;23.00;12.43;;;;;;;3.27;68.20;102857.75;5045152;28;20529;-65
2022/03/01 01:32:33;;;;;;;22.92;12.88;;;;;;;3.28;68.13;102860.41;5046399;28;20056;-65
2022/03/01 01:34:58;;;;;;;26.27;15.07;;;;;;;3.31;68.23;102866.56;5025255;28;20060;-64
2022/03/01 01:37:24;;;;;;;24.08;14.57;;;;;;;3.33;68.00;102859.66;5015707;28;20036;-66
2022/03/01 01:39:49;;;;;;;28.73;13.82;;;;;;;3.37;68.01;102858.91;5024383;28;20195;-67
2022/03/01 01:42:15;;;;;;;23.23;13.88;;;;;;;3.36;67.70;102858.03;5023358;28;20018;-65
2022/03/01 01:44:42;;;;;;;23.27;13.68;;;;;;;3.36;68.03;102857.13;5015091;28;20026;-66
2022/03/01 01:47:07;;;;;;;26.77;15.43;;;;;;;3.35;67.82;102856.28;5017613;28;20031;-65
2022/03/01 01:49:33;;;;;;;23.50;14.23;;;;;;;3.37;67.84;102857.19;5024191;28;20021;-66
2022/03/01 01:51:59;;;;;;;20.73;13.43;;;;;;;3.37;67.63;102866.75;5024481;28;20033;-65
2022/03/01 01:54:24;;;;;;;24.50;14.07;;;;;;;3.35;67.55;102858.88;5024543;28;20029;-65
2022/03/01 01:56:49;;;;;;;24.30;12.45;;;;;;;3.40;67.68;102859.88;5037280;28;20037;-65
2022/03/01 01:59:15;;;;;;;25.38;14.93;;;;;;;3.38;67.90;102858.97;5045198;28;20025;-66
2022/03/01 02:01:41;;;;;;;24.98;15.18;;;;;;;3.39;67.67;102859.81;5019868;28;20033;-66
2022/03/01 02:04:06;;;;;;;20.40;13.38;;;;;;;3.44;67.64;102850.44;5025242;23;20076;-64
2022/03/01 02:06:31;;;;;;;25.67;14.90;;;;;;;3.38;67.79;102850.25;5042872;28;20048;-66
2022/03/01 02:08:57;;;;;;;24.13;15.40;;;;;;;3.37;67.72;102851.09;5043999;28;20025;-65
2022/03/01 02:11:22;;;;;;;23.77;13.57;;;;;;;3.41;67.65;102850.34;5043876;28;20033;-67
2022/03/01 02:13:47;;;;;;;28.15;14.50;;;;;;;3.39;67.88;102849.41;5045161;28;20014;-63
2022/03/01 02:16:13;;;;;;;28.88;16.05;;;;;;;3.39;67.88;102845.09;5043287;28;20041;-64
2022/03/01 02:18:38;;;;;;;27.10;14.27;;;;;;;3.39;68.02;102847.69;5044154;28;20028;-66
2022/03/01 02:21:04;;;;;;;26.00;14.43;;;;;;;3.33;67.85;102850.13;5050439;28;20089;-65
2022/03/01 02:23:29;;;;;;;25.77;14.15;;;;;;;3.38;68.45;102839.81;5064025;28;20071;-66
2022/03/01 02:25:54;;;;;;;28.58;14.18;;;;;;;3.37;68.53;102840.69;5063085;28;20111;-66
2022/03/01 02:28:20;;;;;;;32.35;15.00;;;;;;;3.38;68.38;102832.91;5067858;28;20028;-65
2022/03/01 02:30:45;;;;;;;27.25;13.20;;;;;;;3.38;68.52;102832.00;5049538;28;20029;-65
2022/03/01 02:33:11;;;;;;;25.80;14.80;;;;;;;3.37;68.07;102835.47;5048350;28;20082;-65
2022/03/01 02:35:36;;;;;;;24.90;15.05;;;;;;;3.37;67.91;102832.88;5047626;28;20025;-65
2022/03/01 02:38:02;;;;;;;28.65;14.82;;;;;;;3.43;68.20;102832.16;5048366;28;20033;-65
2022/03/01 02:40:27;;;;;;;23.98;14.77;;;;;;;3.41;68.20;102830.34;5047041;28;20459;-66
2022/03/01 02:42:52;;;;;;;25.65;15.88;;;;;;;3.40;68.67;102832.91;5049884;28;20052;-67
2022/03/01 02:45:19;;;;;;;29.13;15.30;;;;;;;3.34;68.61;102835.38;5048187;28;20037;-61
2022/03/01 02:47:44;;;;;;;23.63;14.35;;;;;;;3.25;68.74;102829.03;5048232;28;20072;-66
2022/03/01 02:50:11;;;;;;;29.05;16.20;;;;;;;3.16;68.75;102826.16;5030282;28;20426;-66
2022/03/01 02:52:37;;;;;;;27.30;14.38;;;;;;;3.16;68.73;102836.59;5066432;28;20020;-67
2022/03/01 02:55:03;;;;;;;25.70;14.45;;;;;;;3.12;68.80;102821.72;5067382;28;20088;-66
2022/03/01 02:57:29;;;;;;;26.50;15.45;;;;;;;3.04;68.95;102837.09;5067018;28;20071;-65
2022/03/01 02:59:55;;;;;;;24.67;14.63;;;;;;;3.02;68.96;102831.88;5068373;28;20055;-66
2022/03/01 03:02:20;;;;;;;29.58;16.63;;;;;;;2.94;69.26;102828.16;5067827;28;20033;-65
2022/03/01 03:04:46;;;;;;;24.80;14.55;;;;;;;2.88;69.75;102827.94;5068606;28;20049;-65
2022/03/01 03:07:12;;;;;;;27.15;16.30;;;;;;;2.86;69.61;102834.84;5052858;28;20412;-65
2022/03/01 03:09:38;;;;;;;25.88;15.15;;;;;;;2.85;69.72;102831.34;5047100;28;20029;-67
2022/03/01 03:12:03;;;;;;;24.17;14.57;;;;;;;2.85;69.65;102826.16;5047481;28;20032;-65
2022/03/01 03:14:29;;;;;;;30.23;15.00;;;;;;;2.82;69.75;102830.38;5047498;28;20029;-66
2022/03/01 03:16:54;;;;;;;26.13;15.05;;;;;;;2.83;70.10;102837.34;5046525;28;20469;-66
2022/03/01 03:19:19;;;;;;;30.20;16.85;;;;;;;2.87;69.69;102836.59;5047245;28;20048;-64
2022/03/01 03:21:47;;;;;;;27.58;16.98;;;;;;;2.90;69.72;102837.59;5045283;28;20479;-64
2022/03/01 03:24:12;;;;;;;24.75;15.48;;;;;;;2.93;69.57;102831.59;5047766;28;20037;-66
2022/03/01 03:26:38;;;;;;;29.45;17.17;;;;;;;2.91;69.49;102828.03;5046987;28;20223;-67
2022/03/01 03:29:08;;;;;;;27.95;17.13;;;;;;;2.93;69.36;102822.88;5047440;28;20033;-66
2022/03/01 03:31:34;;;;;;;25.77;15.02;;;;;;;2.94;69.46;102825.53;5046611;28;20029;-66
2022/03/01 03:33:59;;;;;;;30.20;16.55;;;;;;;2.94;69.54;102827.25;5029720;28;20121;-66
2022/03/01 03:36:24;;;;;;;29.50;16.45;;;;;;;2.92;69.58;102829.81;5027503;28;20527;-64
2022/03/01 03:38:50;;;;;;;28.38;15.95;;;;;;;2.99;69.30;102833.50;5040312;28;20135;-66
2022/03/01 03:41:15;;;;;;;26.33;16.13;;;;;;;3.01;69.08;102837.03;5046779;28;20117;-67
2022/03/01 03:43:40;;;;;;;24.92;14.77;;;;;;;3.07;69.02;102832.00;5045737;28;20165;-65
2022/03/01 03:46:06;;;;;;;32.83;16.70;;;;;;;3.09;69.14;102827.72;5046994;28;20108;-65
2022/03/01 03:48:31;;;;;;;25.95;14.95;;;;;;;3.09;68.75;102829.44;5046909;28;20025;-66
2022/03/01 03:50:57;;;;;;;24.98;15.70;;;;;;;3.17;68.77;102827.94;5047421;28;20025;-65
2022/03/01 03:53:23;;;;;;;22.98;15.25;;;;;;;3.22;68.31;102828.94;5046546;28;20032;-65
2022/03/01 03:55:49;;;;;;;28.48;16.58;;;;;;;3.27;68.49;102832.59;5046805;28;20060;-65
2022/03/01 03:58:14;;;;;;;29.85;16.65;;;;;;;3.30;68.43;102826.56;5046456;28;20474;-64
2022/03/01 04:00:39;;;;;;;23.55;14.55;;;;;;;3.32;68.49;102827.50;5047901;28;20032;-65
2022/03/01 04:03:05;;;;;;;24.90;14.63;;;;;;;3.36;68.24;102813.72;5044965;28;20021;-66
2022/03/01 04:05:30;;;;;;;21.92;13.55;;;;;;;3.39;68.00;102805.09;5045931;28;20115;-65
2022/03/01 04:07:55;;;;;;;25.33;13.98;;;;;;;3.44;67.65;102810.44;5045312;28;20043;-67
2022/03/01 04:10:21;;;;;;;24.08;14.38;;;;;;;3.46;67.49;102809.63;5045225;28;20033;-67
2022/03/01 04:12:46;;;;;;;24.45;12.65;;;;;;;3.50;67.26;102818.44;5046984;28;20108;-66
2022/03/01 04:15:12;;;;;;;25.50;14.73;;;;;;;3.50;67.44;102810.63;5059923;28;20029;-67
2022/03/01 04:17:38;;;;;;;26.83;14.60;;;;;;;3.57;66.85;102814.25;5044943;28;20041;-66
2022/03/01 04:20:04;;;;;;;23.60;14.45;;;;;;;3.58;66.84;102805.63;5053302;28;20475;-65
2022/03/01 04:22:30;;;;;;;23.02;14.43;;;;;;;3.54;66.57;102802.94;5065254;28;20035;-66
2022/03/01 04:24:55;;;;;;;23.95;14.05;;;;;;;3.56;66.77;102802.97;5055325;28;20539;-67
2022/03/01 04:27:20;;;;;;;20.75;14.02;;;;;;;3.54;66.81;102804.66;5047163;28;20108;-66
2022/03/01 04:29:46;;;;;;;20.63;11.73;;;;;;;3.58;66.43;102800.41;5045525;28;20364;-66
2022/03/01 04:32:11;;;;;;;21.20;11.35;;;;;;;3.64;66.67;102795.34;5047185;28;20487;-66
2022/03/01 04:34:38;;;;;;;21.02;13.15;;;;;;;3.63;66.39;102804.00;5045869;28;20482;-65
2022/03/01 04:37:03;;;;;;;20.55;12.15;;;;;;;3.66;66.14;102798.88;5047324;28;20033;-67
2022/03/01 04:39:29;;;;;;;26.15;13.20;;;;;;;3.65;66.20;102797.13;5045324;28;20613;-65
2022/03/01 04:41:55;;;;;;;20.20;12.95;;;;;;;3.72;66.17;102799.03;5045523;28;20291;-66
2022/03/01 04:44:21;;;;;;;21.10;12.43;;;;;;;3.72;65.77;102798.16;5045687;28;20554;-65
2022/03/01 04:46:46;;;;;;;26.02;13.40;;;;;;;3.70;65.46;102800.72;5046841;28;20097;-65
2022/03/01 04:49:11;;;;;;;22.58;13.02;;;;;;;3.70;65.36;102798.09;5039841;28;20021;-68
2022/03/01 04:51:37;;;;;;;19.52;12.07;;;;;;;3.75;65.58;102798.25;5039100;28;20120;-66
2022/03/01 04:54:03;;;;;;;19.85;13.15;;;;;;;3.76;65.80;102793.06;5034855;28;20026;-65
2022/03/01 04:56:28;;;;;;;23.95;13.93;;;;;;;3.80;65.95;102796.66;5044421;28;20047;-67
2022/03/01 04:58:53;;;;;;;23.60;13.80;;;;;;;3.80;65.32;102796.66;5066348;28;20021;-67
2022/03/01 05:01:20;;;;;;;24.38;14.02;;;;;;;3.80;65.75;102794.03;5057073;28;20029;-64
2022/03/01 05:03:45;;;;;;;23.67;13.52;;;;;;;3.81;65.44;102797.50;5046376;28;20035;-66
2022/03/01 05:06:11;;;;;;;23.10;14.10;;;;;;;3.76;65.83;102800.00;5043859;28;20053;-64
2022/03/01 05:08:36;;;;;;;25.25;13.00;;;;;;;3.77;65.70;102802.63;5046467;28;20475;-64
2022/03/01 05:11:02;;;;;;;22.73;13.07;;;;;;;3.78;65.60;102807.03;5044249;28;20107;-64
2022/03/01 05:13:28;;;;;;;23.98;13.73;;;;;;;3.74;65.80;102799.97;5045930;28;20041;-64
2022/03/01 05:15:53;;;;;;;23.20;13.38;;;;;;;3.75;65.97;102798.25;5038593;28;20033;-64
2022/03/01 05:18:19;;;;;;;22.42;14.70;;;;;;;3.74;66.35;102791.25;5033608;28;20035;-64
2022/03/01 05:20:44;;;;;;;24.15;13.88;;;;;;;3.75;66.62;102787.81;5049768;28;20047;-64
2022/03/01 05:23:10;;;;;;;23.40;13.27;;;;;;;3.75;66.15;102793.91;5046478;28;20549;-64
2022/03/01 05:25:35;;;;;;;21.42;14.90;;;;;;;3.74;66.49;102792.16;5045045;28;20578;-64
2022/03/01 05:28:00;;;;;;;24.38;14.18;;;;;;;3.73;66.72;102790.38;5039165;28;20383;-66
2022/03/01 05:30:26;;;;;;;21.50;13.75;;;;;;;3.74;66.02;102792.16;5035502;28;20480;-65
2022/03/01 05:32:52;;;;;;;21.80;13.43;;;;;;;3.75;66.54;102787.81;5044100;28;20391;-64
2022/03/01 05:35:21;;;;;;;22.73;13.68;;;;;;;3.76;66.46;102790.44;5046147;28;20060;-66
2022/03/01 05:37:49;;;;;;;18.87;12.27;;;;;;;3.78;66.29;102790.50;5046771;28;20017;-67
2022/03/01 05:40:15;;;;;;;21.23;13.20;;;;;;;3.79;66.57;102787.94;5045343;28;20028;-65
2022/03/01 05:42:40;;;;;;;20.05;12.30;;;;;;;3.87;66.26;102782.03;5046027;28;20384;-64
2022/03/01 05:45:06;;;;;;;22.98;12.80;;;;;;;3.86;66.39;102788.09;5044923;28;20021;-66
2022/03/01 05:47:31;;;;;;;22.98;13.68;;;;;;;3.87;66.35;102789.84;5045813;28;20029;-65
2022/03/01 05:49:57;;;;;;;22.02;13.77;;;;;;;3.84;66.46;102797.59;5039394;28;20029;-66
2022/03/01 05:52:23;;;;;;;21.92;11.95;;;;;;;3.84;66.53;102800.19;5043693;28;20025;-64
2022/03/01 05:54:48;;;;;;;23.38;11.93;;;;;;;3.91;66.14;102795.19;5040559;28;20060;-64
2022/03/01 05:57:13;;;;;;;23.20;13.50;;;;;;;3.86;66.31;102790.69;5045459;28;20036;-64
2022/03/01 05:59:39;;;;;;;30.00;14.07;;;;;;;3.88;66.42;102789.00;5043713;28;20029;-64
2022/03/01 06:02:04;;;;;;;23.38;12.60;;;;;;;3.91;66.15;102786.47;5054020;28;20029;-66
2022/03/01 06:04:29;;;;;;;22.80;12.05;;;;;;;3.96;65.94;102787.47;5051824;28;20037;-67
2022/03/01 06:06:55;;;;;;;22.73;13.00;;;;;;;3.97;65.89;102793.59;5047547;28;20475;-66
2022/03/01 06:09:20;;;;;;;20.73;12.52;;;;;;;3.94;66.02;102794.38;5058177;28;20517;-66
2022/03/01 06:11:46;;;;;;;21.20;13.05;;;;;;;3.96;65.83;102792.69;5041064;28;20406;-65
2022/03/01 06:14:11;;;;;;;24.02;13.05;;;;;;;3.94;65.88;102793.50;5050477;28;20386;-65
2022/03/01 06:16:36;;;;;;;21.13;13.23;;;;;;;3.88;66.01;102796.81;5052144;28;20028;-67
2022/03/01 06:19:02;;;;;;;23.17;12.52;;;;;;;3.94;66.32;102801.34;5038911;28;20383;-65
2022/03/01 06:21:27;;;;;;;22.58;13.30;;;;;;;3.98;66.33;102804.06;5041718;28;20103;-64
2022/03/01 06:23:53;;;;;;;26.67;13.27;;;;;;;3.99;66.12;102802.31;5044699;28;20028;-65
2022/03/01 06:26:18;;;;;;;24.33;13.88;;;;;;;3.97;66.46;102804.03;5042957;28;20034;-65
2022/03/01 06:28:43;;;;;;;21.65;12.38;;;;;;;4.04;66.16;102804.19;5050691;28;20033;-66
2022/03/01 06:31:09;;;;;;;23.70;13.52;;;;;;;4.08;66.43;102801.66;5049469;28;20390;-66
2022/03/01 06:33:34;;;;;;;19.58;12.77;;;;;;;4.06;66.67;102803.38;5055090;28;20043;-65
2022/03/01 06:36:00;;;;;;;21.95;13.18;;;;;;;4.08;66.13;102802.56;5052125;28;20060;-66
2022/03/01 06:38:26;;;;;;;20.88;12.13;;;;;;;4.17;65.97;102800.19;5051394;28;20013;-65
2022/03/01 06:40:55;;;;;;;22.42;12.55;;;;;;;4.16;65.92;102810.59;5050316;28;20025;-65
2022/03/01 06:43:21;;;;;;;20.27;13.43;;;;;;;4.16;65.97;102818.41;5044094;28;20029;-66
2022/03/01 06:45:46;;;;;;;20.38;13.00;;;;;;;4.16;66.27;102810.59;5042912;28;20387;-61
2022/03/01 06:48:11;;;;;;;23.60;12.45;;;;;;;4.21;66.47;102819.41;5061628;28;20654;-63
2022/03/01 06:50:37;;;;;;;23.05;13.25;;;;;;;4.20;66.37;102822.84;5060331;28;20064;-61
2022/03/01 06:53:02;;;;;;;19.58;11.70;;;;;;;4.22;66.33;102813.34;5056863;28;20040;-61
2022/03/01 06:55:27;;;;;;;21.77;13.18;;;;;;;4.17;66.72;102828.88;5056697;28;20048;-64
2022/03/01 06:57:53;;;;;;;19.88;13.00;;;;;;;4.07;66.56;102828.59;5053440;28;20036;-64
2022/03/01 07:00:19;;;;;;;20.15;11.60;;;;;;;4.13;66.52;102837.47;5050951;28;20047;-66
2022/03/01 07:02:44;;;;;;;21.38;13.18;;;;;;;4.08;66.06;102838.19;5049944;28;20066;-62
2022/03/01 07:05:12;;;;;;;25.63;13.07;;;;;;;4.13;66.15;102834.84;5049627;28;20080;-65
2022/03/01 07:07:38;;;;;;;21.55;11.80;;;;;;;4.21;65.89;102832.44;5050221;28;20025;-64
2022/03/01 07:10:05;;;;;;;23.15;12.52;;;;;;;4.22;65.71;102844.66;5050518;28;20032;-64
2022/03/01 07:12:30;;;;;;;24.00;13.32;;;;;;;4.24;65.82;102839.50;5049847;28;20025;-64
2022/03/01 07:14:56;;;;;;;22.38;12.55;;;;;;;4.24;65.99;102850.78;5047987;28;20020;-61
2022/03/01 07:17:21;;;;;;;22.80;12.02;;;;;;;4.32;65.63;102837.03;5047176;28;20024;-64
2022/03/01 07:19:47;;;;;;;22.60;13.52;;;;;;;4.33;65.74;102838.84;5046774;28;20025;-62
2022/03/01 07:22:12;;;;;;;23.65;13.05;;;;;;;4.30;66.21;102839.63;5047854;28;20037;-65
2022/03/01 07:24:38;;;;;;;20.65;12.40;;;;;;;4.30;65.88;102843.13;5046844;28;20040;-65
2022/03/01 07:27:03;;;;;;;19.73;12.38;;;;;;;4.37;66.27;102846.75;5048920;28;20078;-63
2022/03/01 07:29:30;;;;;;;17.40;11.73;;;;;;;4.37;65.44;102851.09;5056029;28;20106;-62
2022/03/01 07:31:57;;;;;;;22.63;12.13;;;;;;;4.47;65.21;102858.31;5049982;28;20291;-61
2022/03/01 07:34:22;;;;;;;20.92;12.25;;;;;;;4.53;65.30;102858.47;5048489;28;20033;-62
2022/03/01 07:36:47;;;;;;;24.40;13.40;;;;;;;4.54;65.03;102860.22;5051514;28;20029;-64
2022/03/01 07:39:12;;;;;;;20.33;12.40;;;;;;;4.64;64.36;102863.94;5058824;28;20467;-61
2022/03/01 07:41:38;;;;;;;23.73;11.57;;;;;;;4.68;64.21;102863.19;5056044;28;20332;-62
2022/03/01 07:44:03;;;;;;;22.55;13.30;;;;;;;4.74;64.02;102865.03;5057358;28;20027;-63
2022/03/01 07:46:29;;;;;;;25.85;12.80;;;;;;;4.79;64.16;102862.53;5054839;28;20033;-64
2022/03/01 07:48:54;;;;;;;18.70;11.52;;;;;;;4.85;64.00;102869.63;5050838;28;20100;-64
2022/03/01 07:51:19;;;;;;;20.17;11.57;;;;;;;4.84;63.33;102866.13;5048198;28;20025;-61
2022/03/01 07:53:45;;;;;;;21.98;13.80;;;;;;;4.84;63.56;102878.31;5048227;28;20056;-62
2022/03/01 07:56:10;;;;;;;23.42;11.75;;;;;;;4.79;63.89;102881.69;5044992;28;20471;-63
2022/03/01 07:58:36;;;;;;;19.50;12.43;;;;;;;4.86;63.72;102874.88;5037348;28;20068;-63
2022/03/01 08:01:01;;;;;;;23.50;12.93;;;;;;;4.96;63.19;102873.34;5051106;28;20025;-65
2022/03/01 08:03:27;;;;;;;23.33;12.75;;;;;;;5.00;63.15;102883.03;5053244;28;20068;-62
2022/03/01 08:05:52;;;;;;;21.13;12.55;;;;;;;5.13;63.22;102880.69;5053546;28;20041;-62
2022/03/01 08:08:18;;;;;;;26.25;13.48;;;;;;;5.16;62.74;102880.75;5055590;28;20035;-62
2022/03/01 08:10:43;;;;;;;22.15;12.38;;;;;;;5.21;62.48;102879.13;5053297;28;20283;-62
2022/03/01 08:13:08;;;;;;;20.05;12.65;;;;;;;5.26;62.73;102877.50;5057224;28;20013;-62
2022/03/01 08:15:34;;;;;;;26.30;11.82;;;;;;;5.13;62.37;102883.31;5035604;28;20048;-62
2022/03/01 08:18:00;;;;;;;20.75;11.50;;;;;;;5.21;62.48;102886.09;5051796;28;20074;-63
2022/03/01 08:20:26;;;;;;;19.70;12.85;;;;;;;5.09;62.94;102886.72;5050153;28;20032;-61
2022/03/01 08:22:52;;;;;;;20.23;11.60;;;;;;;5.18;62.80;102885.16;5054348;28;20024;-62
2022/03/01 08:25:18;;;;;;;17.35;11.57;;;;;;;5.10;62.93;102896.31;5059329;28;20071;-70
2022/03/01 08:27:44;;;;;;;21.20;12.25;;;;;;;5.05;62.54;102899.69;5046383;28;20394;-66
2022/03/01 08:30:10;;;;;;;20.08;12.15;;;;;;;5.08;61.96;102903.25;5058543;28;20021;-67
2022/03/01 08:32:35;;;;;;;19.63;11.23;;;;;;;5.00;63.16;102900.44;5057480;28;20048;-67
2022/03/01 08:35:01;;;;;;;22.88;11.75;;;;;;;4.92;62.64;102895.94;5056133;28;20025;-65
2022/03/01 08:37:26;;;;;;;22.90;11.75;;;;;;;4.95;62.80;102886.38;5055791;28;20032;-65
2022/03/01 08:39:52;;;;;;;18.00;12.00;;;;;;;4.90;63.36;102896.72;5055191;28;20471;-67
2022/03/01 08:42:18;;;;;;;20.58;10.93;;;;;;;4.92;63.15;102902.88;5054211;28;20471;-66
2022/03/01 08:44:43;;;;;;;19.05;12.48;;;;;;;5.02;63.04;102901.34;5048479;28;20558;-66
2022/03/01 08:47:09;;;;;;;30.35;12.48;;;;;;;5.02;63.50;102897.00;5042293;28;20111;-63
2022/03/01 08:49:34;;;;;;;18.90;11.63;;;;;;;5.05;63.89;102901.41;5046611;28;20467;-66
2022/03/01 08:51:59;;;;;;;20.88;12.25;;;;;;;5.09;63.27;102903.25;5046253;28;20028;-66
2022/03/01 08:54:24;;;;;;;20.95;12.27;;;;;;;5.22;63.13;102893.06;5038558;28;20029;-66
2022/03/01 08:56:50;;;;;;;21.83;12.27;;;;;;;5.21;62.81;102900.03;5045103;28;20063;-68
2022/03/01 08:59:16;;;;;;;20.13;11.35;;;;;;;5.24;62.57;102901.84;5043503;28;20042;-66
2022/03/01 09:01:41;;;;;;;20.83;12.48;;;;;;;5.23;62.52;102905.28;5044729;28;20025;-66
2022/03/01 09:04:06;;;;;;;21.13;12.05;;;;;;;5.27;62.15;102899.31;5044486;28;20037;-66
2022/03/01 09:06:32;;;;;;;20.60;11.80;;;;;;;5.29;61.69;102908.03;5046298;28;20675;-67
2022/03/01 09:08:57;;;;;;;19.85;11.27;;;;;;;5.31;61.54;102914.19;5046638;28;20369;-64
2022/03/01 09:11:23;;;;;;;17.13;11.45;;;;;;;5.45;60.67;102917.13;5050062;28;20033;-64
2022/03/01 09:13:48;;;;;;;20.15;10.43;;;;;;;5.57;60.40;102930.44;5054975;28;20028;-66
2022/03/01 09:16:14;;;;;;;22.38;11.52;;;;;;;5.52;60.16;102941.66;5053975;28;20166;-63
2022/03/01 09:18:39;;;;;;;20.15;11.75;;;;;;;5.51;61.36;102942.50;5054313;28;20107;-61
2022/03/01 09:21:06;;;;;;;22.55;12.20;;;;;;;5.57;61.99;102940.88;5049744;28;20012;-63
2022/03/01 09:23:32;;;;;;;28.95;12.13;;;;;;;5.59;61.01;102937.41;5051102;28;20468;-65
2022/03/01 09:25:57;;;;;;;17.35;11.50;;;;;;;5.59;61.14;102930.47;5046508;28;20075;-65
2022/03/01 09:28:22;;;;;;;19.65;11.93;;;;;;;5.71;60.92;102923.72;5046612;28;20493;-65
2022/03/01 09:30:48;;;;;;;20.67;11.70;;;;;;;5.72;61.01;102928.97;5047550;28;20115;-67
2022/03/01 09:33:13;;;;;;;22.23;12.50;;;;;;;5.76;61.45;102933.44;5045328;28;20017;-65
2022/03/01 09:35:39;;;;;;;23.05;12.50;;;;;;;5.73;61.13;102938.59;5041552;28;20039;-65
2022/03/01 09:38:04;;;;;;;18.85;12.52;;;;;;;5.70;61.65;102946.38;5046641;28;20032;-67
2022/03/01 09:40:30;;;;;;;22.73;12.63;;;;;;;5.64;61.55;102948.88;5043857;28;20486;-66
2022/03/01 09:42:55;;;;;;;18.35;12.15;;;;;;;5.65;62.27;102953.25;5025557;28;20526;-65
2022/03/01 09:45:21;;;;;;;23.80;12.05;;;;;;;5.59;62.58;102958.34;5024132;28;20047;-66
2022/03/01 09:47:47;;;;;;;22.35;12.98;;;;;;;5.59;63.92;102953.09;5023083;28;20021;-66
2022/03/01 09:50:13;;;;;;;20.20;12.73;;;;;;;5.57;63.48;102956.59;5024454;28;20086;-66
2022/03/01 09:52:39;;;;;;;22.80;12.82;;;;;;;5.63;64.58;102961.06;5024573;28;20455;-64
2022/03/01 09:55:07;;;;;;;20.92;12.18;;;;;;;5.55;64.30;102963.53;5021671;28;20033;-65
2022/03/01 09:57:32;;;;;;;20.30;11.55;;;;;;;5.65;64.98;102954.13;5022146;28;20551;-66
2022/03/01 09:59:58;;;;;;;18.98;11.95;;;;;;;5.56;65.95;102949.59;5026293;28;20112;-64
2022/03/01 10:02:37;;;;;;;21.75;13.10;;;;;;;5.45;67.08;102966.81;5025295;28;20108;-65
2022/03/01 10:05:03;;;;;;;27.33;15.48;;;;;;;5.43;68.09;102963.25;5026390;28;20041;-65
2022/03/01 10:07:30;;;;;;;20.65;12.68;;;;;;;5.40;68.55;102957.97;5024210;28;20047;-66
2022/03/01 10:10:22;;;;;;;25.48;13.90;;;;;;;5.50;68.50;102959.03;5026273;28;20537;-68
2022/03/01 10:12:54;;;;;;;26.40;14.45;;;;;;;5.41;68.29;102954.47;5023406;28;20710;-65
2022/03/01 10:15:29;;;;;;;26.73;13.70;;;;;;;5.35;69.26;102959.56;5021055;28;20380;-67
2022/03/01 10:17:54;;;;;;;24.80;13.80;;;;;;;5.29;68.86;102963.84;5024273;28;20164;-66
2022/03/01 10:20:20;;;;;;;31.50;14.55;;;;;;;5.17;69.96;102960.94;5014331;28;20181;-65
2022/03/01 10:22:51;;;;;;;21.50;13.40;;;;;;;5.26;71.09;102969.00;5015204;28;20024;-66
2022/03/01 10:25:18;;;;;;;28.45;14.73;;;;;;;5.43;70.36;102964.16;5019758;28;20025;-66
2022/03/01 10:27:45;;;;;;;26.40;14.55;;;;;;;5.52;71.51;102954.72;5005645;28;20032;-67
2022/03/01 10:30:11;;;;;;;28.95;14.25;;;;;;;5.59;71.63;102958.34;5025535;28;20025;-65
2022/03/01 10:32:37;;;;;;;22.42;13.23;;;;;;;5.73;71.22;102956.03;5026387;28;20446;-65
2022/03/01 10:35:08;;;;;;;27.60;14.00;;;;;;;5.56;69.91;102959.16;5004551;28;20110;-66
2022/03/01 10:37:36;;;;;;;21.95;13.43;;;;;;;5.68;70.27;102956.81;5003550;28;20114;-65
2022/03/01 10:40:16;;;;;;;25.80;14.10;;;;;;;5.64;70.12;102964.56;5022786;28;20029;-65
2022/03/01 10:42:42;;;;;;;22.90;13.90;;;;;;;5.75;69.72;102962.19;5026179;28;20380;-66
2022/03/01 10:45:09;;;;;;;25.83;13.88;;;;;;;5.77;70.33;102955.22;5029003;28;20025;-66
2022/03/01 10:47:35;;;;;;;27.55;15.13;;;;;;;5.76;70.73;102954.38;5012649;28;20096;-66
2022/03/01 10:50:10;;;;;;;22.52;13.75;;;;;;;5.84;70.02;102954.50;5025059;28;20029;-65
2022/03/01 10:52:40;;;;;;;27.85;15.30;;;;;;;5.67;70.16;102943.72;5030400;28;20032;-66
2022/03/01 10:55:07;;;;;;;29.52;14.77;;;;;;;5.72;70.75;102947.28;5020690;28;20083;-65
2022/03/01 10:57:32;;;;;;;22.48;13.70;;;;;;;5.80;69.67;102947.44;5021290;28;20041;-66
2022/03/01 10:59:58;;;;;;;24.13;14.13;;;;;;;5.75;69.50;102949.97;5028659;28;20032;-65
2022/03/01 11:02:23;;;;;;;27.50;14.55;;;;;;;5.52;69.30;102955.63;5027496;28;20029;-68
2022/03/01 11:04:50;;;;;;;22.65;14.73;;;;;;;5.53;70.00;102952.16;5028338;28;20138;-67
2022/03/01 11:07:15;;;;;;;29.77;15.48;;;;;;;5.60;70.51;102949.66;5030199;28;20580;-66
2022/03/01 11:09:41;;;;;;;28.48;15.13;;;;;;;5.84;70.81;102945.78;5026678;28;20092;-65